Time;durP1;ratioP1;P1;durP2;ratioP2;P2;SDS_P1;SDS_P2;PMS_P1;PMS_P2;Temp;Humidity;BMP_temperature;BMP_pressure;BME280_temperature;BME280_humidity;BME280_pressure;Samples;Min_cycle;Max_cycle;Signal;HPM_P1;HPM_P2
2022/12/31 00:01:26;;;;;;;;;;;;;;;25.96;43.00;94457.13;5066018;28;7364;-63
2022/12/31 00:04:06;;;;;;;;;;;;;;;25.97;42.78;94460.59;5065040;28;7099;-63
2022/12/31 00:06:35;;;;;;;;;;;;;;;25.94;42.93;94450.63;5063892;28;7932;-63
2022/12/31 00:09:08;;;;;;;;;;;;;;;25.94;42.46;94456.88;5071110;28;7012;-63
2022/12/31 00:11:43;;;;;;;;;;;;;;;25.96;42.93;94461.88;5053921;28;7022;-63
2022/12/31 00:14:13;;;;;;;;;;;;;;;25.95;42.86;94458.38;5072037;28;7198;-63
2022/12/31 00:16:43;;;;;;;;;;;;;;;25.95;43.12;94457.63;5060586;28;8184;-62
2022/12/31 00:19:11;;;;;;;;;;;;;;;25.96;42.54;94453.63;5077902;28;7128;-63
2022/12/31 00:21:38;;;;;;;;;;;;;;;25.95;42.33;94457.63;5073133;28;7274;-63
2022/12/31 00:24:13;;;;;;;;;;;;;;;25.94;42.46;94454.13;5073229;28;7136;-64
2022/12/31 00:26:45;;;;;;;;;;;;;;;25.95;42.77;94454.84;5069794;28;7309;-64
2022/12/31 00:29:17;;;;;;;;;;;;;;;25.94;42.60;94456.88;5068318;28;7023;-61
2022/12/31 00:31:49;;;;;;;;;;;;;;;25.95;42.93;94454.84;5070756;28;7165;-62
2022/12/31 00:34:18;;;;;;;;;;;;;;;25.94;42.89;94451.38;5061079;28;7136;-64
2022/12/31 00:36:52;;;;;;;;;;;;;;;25.96;42.41;94442.59;5067343;28;7323;-63
2022/12/31 00:39:27;;;;;;;;;;;;;;;25.97;42.42;94449.59;5061026;28;7103;-63
2022/12/31 00:41:53;;;;;;;;;;;;;;;25.96;42.59;94448.84;5077078;28;7150;-62
2022/12/31 00:44:19;;;;;;;;;;;;;;;25.95;42.99;94450.09;5066001;28;7163;-63
2022/12/31 00:46:45;;;;;;;;;;;;;;;25.95;42.75;94452.09;5075950;28;8217;-62
2022/12/31 00:49:17;;;;;;;;;;;;;;;25.93;42.90;94465.66;5064782;28;7492;-64
2022/12/31 00:51:47;;;;;;;;;;;;;;;25.91;42.49;94457.91;5064550;28;7701;-63
2022/12/31 00:54:37;;;;;;;;;;;;;;;25.92;42.62;94464.91;5072433;28;7159;-63
2022/12/31 00:57:09;;;;;;;;;;;;;;;25.93;42.89;94460.88;5069772;28;7112;-63
2022/12/31 00:59:41;;;;;;;;;;;;;;;25.93;42.82;94471.91;5071892;28;7970;-64
2022/12/31 01:02:25;;;;;;;;;;;;;;;25.94;42.29;94472.66;5061905;28;7318;-63
2022/12/31 01:04:55;;;;;;;;;;;;;;;25.92;43.05;94464.91;5073120;28;7159;-63
2022/12/31 01:07:22;;;;;;;;;;;;;;;25.93;42.78;94460.13;5057332;28;7628;-62
2022/12/31 01:09:55;;;;;;;;;;;;;;;25.91;42.40;94455.16;5066272;28;7419;-63
2022/12/31 01:12:28;;;;;;;;;;;;;;;25.94;42.37;94451.38;5072217;28;7030;-63
2022/12/31 01:15:07;;;;;;;;;;;;;;;25.93;42.49;94443.59;5055358;28;7176;-63
2022/12/31 01:17:34;;;;;;;;;;;;;;;25.93;42.61;94457.38;5056969;28;7115;-64
2022/12/31 01:20:02;;;;;;;;;;;;;;;25.92;43.11;94464.91;5053891;28;7370;-63
2022/12/31 01:22:28;;;;;;;;;;;;;;;25.92;42.81;94459.41;5057036;28;7174;-62
2022/12/31 01:25:02;;;;;;;;;;;;;;;25.93;42.79;94474.66;5070229;28;7023;-64
2022/12/31 01:27:36;;;;;;;;;;;;;;;25.93;42.62;94471.91;5058661;28;7196;-62
2022/12/31 01:30:04;;;;;;;;;;;;;;;25.92;42.63;94462.16;5053068;28;9409;-63
2022/12/31 01:32:39;;;;;;;;;;;;;;;25.94;42.77;94459.66;5063407;28;7213;-62
2022/12/31 01:35:14;;;;;;;;;;;;;;;25.93;42.80;94455.38;5082813;28;7390;-64
2022/12/31 01:37:49;;;;;;;;;;;;;;;25.94;42.49;94453.38;5059236;28;7042;-64
2022/12/31 01:40:15;;;;;;;;;;;;;;;25.93;43.12;94449.88;5063357;28;7298;-63
2022/12/31 01:42:41;;;;;;;;;;;;;;;25.94;42.68;94456.13;5056815;28;7259;-62
2022/12/31 01:45:14;;;;;;;;;;;;;;;25.93;42.63;94466.41;5069861;28;7281;-63
2022/12/31 01:47:49;;;;;;;;;;;;;;;25.92;42.67;94459.41;5065217;28;7237;-62
2022/12/31 01:50:23;;;;;;;;;;;;;;;25.93;43.20;94457.38;5064370;28;7242;-62
2022/12/31 01:53:17;;;;;;;;;;;;;;;25.92;42.32;94451.13;5069593;28;7324;-62
2022/12/31 01:55:58;;;;;;;;;;;;;;;25.94;42.74;94453.38;5017004;28;7191;-63
2022/12/31 01:58:30;;;;;;;;;;;;;;;25.91;42.52;94441.38;5026394;28;7808;-63
2022/12/31 02:01:02;;;;;;;;;;;;;;;25.91;42.58;94435.84;5000739;28;7387;-62
2022/12/31 02:03:57;;;;;;;;;;;;;;;25.92;43.07;94453.91;5011468;28;7168;-64
2022/12/31 02:06:37;;;;;;;;;;;;;;;25.93;42.35;94466.41;4966575;28;7218;-64
2022/12/31 02:09:06;;;;;;;;;;;;;;;25.92;42.74;94450.38;4951755;28;7256;-63
2022/12/31 02:11:36;;;;;;;;;;;;;;;25.91;42.47;94459.91;4968619;28;7249;-63
2022/12/31 02:14:30;;;;;;;;;;;;;;;25.91;43.05;94460.66;4956169;28;7094;-61
2022/12/31 02:17:23;;;;;;;;;;;;;;;25.93;42.50;94460.13;4961542;28;7033;-62
2022/12/31 02:20:00;;;;;;;;;;;;;;;25.93;42.51;94460.88;4963616;28;7132;-63
2022/12/31 02:22:59;;;;;;;;;;;;;;;25.92;42.55;94461.41;4955059;28;7026;-63
2022/12/31 02:26:02;;;;;;;;;;;;;;;25.92;42.26;94461.41;4970293;28;7052;-63
2022/12/31 02:28:49;;;;;;;;;;;;;;;25.92;43.14;94459.41;4968241;28;7317;-64
2022/12/31 02:31:46;;;;;;;;;;;;;;;25.92;42.43;94459.41;4971362;28;7309;-64
2022/12/31 02:34:32;;;;;;;;;;;;;;;25.92;42.55;94464.16;4959334;28;8171;-62
2022/12/31 02:37:11;;;;;;;;;;;;;;;25.93;43.06;94471.91;4958271;28;7579;-63
2022/12/31 02:39:44;;;;;;;;;;;;;;;25.93;43.18;94469.16;4944328;28;7014;-63
2022/12/31 02:42:11;;;;;;;;;;;;;;;25.91;43.13;94468.91;4958157;28;7255;-62
2022/12/31 02:44:39;;;;;;;;;;;;;;;25.90;42.98;94470.16;4971714;28;7210;-62
2022/12/31 02:47:08;;;;;;;;;;;;;;;25.90;43.28;94469.44;4971235;28;7139;-63
2022/12/31 02:50:17;;;;;;;;;;;;;;;25.91;42.72;94474.44;4953701;28;7140;-63
2022/12/31 02:53:02;;;;;;;;;;;;;;;25.91;42.72;94471.69;4954103;28;7506;-63
2022/12/31 02:56:05;;;;;;;;;;;;;;;25.92;42.41;94467.69;4953149;28;8974;-62
2022/12/31 03:04:42;;;;;;;;;;;;;;;25.88;43.15;94483.72;4970897;28;7113;-63
2022/12/31 03:07:13;;;;;;;;;;;;;;;25.87;42.49;94476.72;4958036;28;7024;-64
2022/12/31 03:09:40;;;;;;;;;;;;;;;25.87;43.02;94471.22;4973790;28;7249;-63
2022/12/31 03:15:29;;;;;;;;;;;;;;;25.88;42.51;94486.47;5071413;28;8480;-62
2022/12/31 03:22:26;;;;;;;;;;;;;;;25.89;43.16;94487.97;5013322;28;7990;-63
2022/12/31 03:27:07;;;;;;;;;;;;;;;25.87;42.67;94473.97;4954562;28;7363;-62
2022/12/31 03:29:33;;;;;;;;;;;;;;;25.87;42.73;94484.22;4939835;28;7251;-62
2022/12/31 03:31:59;;;;;;;;;;;;;;;25.89;42.66;94492.72;4937269;28;7215;-62
2022/12/31 03:34:27;;;;;;;;;;;;;;;25.89;42.67;94493.50;4940617;28;9297;-62
2022/12/31 03:37:05;;;;;;;;;;;;;;;25.90;42.87;94494.97;4958641;28;7270;-62
2022/12/31 03:39:33;;;;;;;;;;;;;;;25.88;42.80;94502.28;4928926;28;7645;-62
2022/12/31 03:42:04;;;;;;;;;;;;;;;25.86;43.07;94511.03;4958004;28;7284;-62
2022/12/31 03:44:30;;;;;;;;;;;;;;;25.86;43.09;94516.53;4949727;28;7058;-62
2022/12/31 03:46:55;;;;;;;;;;;;;;;25.88;42.68;94522.28;4950149;28;8578;-62
2022/12/31 03:49:30;;;;;;;;;;;;;;;25.88;43.14;94525.03;4949071;28;7019;-63
2022/12/31 03:51:56;;;;;;;;;;;;;;;25.89;42.61;94526.56;4939955;28;7264;-63
2022/12/31 03:54:55;;;;;;;;;;;;;;;25.90;42.31;94510.78;4963926;28;7302;-63
2022/12/31 03:57:34;;;;;;;;;;;;;;;25.87;42.66;94504.28;4963147;28;7405;-63
2022/12/31 04:00:00;;;;;;;;;;;;;;;25.88;42.73;94496.75;4977454;28;7205;-62
2022/12/31 04:02:28;;;;;;;;;;;;;;;25.88;43.21;94522.28;4974339;28;7305;-63
2022/12/31 04:04:56;;;;;;;;;;;;;;;25.87;42.75;94518.06;4965079;28;7069;-61
2022/12/31 04:07:22;;;;;;;;;;;;;;;25.90;42.72;94522.53;4975588;28;7041;-62
2022/12/31 04:09:48;;;;;;;;;;;;;;;25.89;42.64;94512.03;4979191;28;7114;-62
2022/12/31 04:12:14;;;;;;;;;;;;;;;25.89;42.81;94529.31;4974333;28;9958;-60
2022/12/31 04:14:40;;;;;;;;;;;;;;;25.88;43.15;94518.81;4972851;28;7023;-63
2022/12/31 04:17:06;;;;;;;;;;;;;;;25.89;43.13;94536.81;4969336;28;7463;-62
2022/12/31 04:19:39;;;;;;;;;;;;;;;25.88;43.10;94543.59;4967652;28;8019;-62
2022/12/31 04:22:06;;;;;;;;;;;;;;;25.90;42.74;94536.31;4985688;28;7058;-62
2022/12/31 04:24:34;;;;;;;;;;;;;;;25.89;42.45;94534.81;4989478;28;7072;-62
2022/12/31 04:27:01;;;;;;;;;;;;;;;25.88;43.02;94538.81;4964717;28;7111;-62
2022/12/31 04:30:07;;;;;;;;;;;;;;;25.89;42.37;94542.34;4974528;28;7344;-63
2022/12/31 04:32:33;;;;;;;;;;;;;;;25.88;43.00;94536.06;5013920;28;9364;-63
2022/12/31 04:35:04;;;;;;;;;;;;;;;25.88;43.14;94540.84;5065275;28;7309;-63
2022/12/31 04:37:36;;;;;;;;;;;;;;;25.88;42.50;94536.06;5061084;28;7884;-61
2022/12/31 04:40:17;;;;;;;;;;;;;;;25.88;43.17;94533.31;5070413;28;9483;-62
2022/12/31 04:42:43;;;;;;;;;;;;;;;25.87;43.05;94540.09;5068943;28;7113;-61
2022/12/31 04:45:16;;;;;;;;;;;;;;;25.85;43.11;94539.09;5059151;28;9997;-63
2022/12/31 04:47:42;;;;;;;;;;;;;;;25.86;42.45;94538.59;5062216;28;7383;-62
2022/12/31 04:50:11;;;;;;;;;;;;;;;25.87;42.79;94547.59;5075485;28;8430;-62
2022/12/31 04:52:42;;;;;;;;;;;;;;;25.86;42.61;94540.63;5058878;28;7110;-62
2022/12/31 04:55:09;;;;;;;;;;;;;;;25.88;43.00;94551.88;5070565;28;7278;-63
2022/12/31 04:57:40;;;;;;;;;;;;;;;25.86;42.99;94544.09;5068078;28;8999;-62
2022/12/31 05:00:10;;;;;;;;;;;;;;;25.86;43.11;94546.13;5078529;28;7033;-61
2022/12/31 05:02:38;;;;;;;;;;;;;;;25.86;42.89;94546.84;5052764;28;7276;-61
2022/12/31 05:05:09;;;;;;;;;;;;;;;25.86;43.17;94544.09;5073102;28;7284;-63
2022/12/31 05:07:43;;;;;;;;;;;;;;;25.87;42.91;94540.09;5059765;28;7306;-61
2022/12/31 05:10:10;;;;;;;;;;;;;;;25.86;43.24;94544.09;5056614;28;7870;-61
2022/12/31 05:12:37;;;;;;;;;;;;;;;25.84;42.99;94541.09;5054186;28;9122;-62
2022/12/31 05:15:15;;;;;;;;;;;;;;;25.85;43.42;94550.88;5071381;28;7436;-63
2022/12/31 05:17:44;;;;;;;;;;;;;;;25.83;42.68;94545.13;5054578;28;7270;-62
2022/12/31 05:20:12;;;;;;;;;;;;;;;25.85;43.26;94534.34;5053931;28;8332;-61
2022/12/31 05:22:40;;;;;;;;;;;;;;;25.86;42.54;94544.09;5075352;28;7399;-63
2022/12/31 05:25:34;;;;;;;;;;;;;;;25.86;43.38;94544.09;5053039;28;7417;-63
2022/12/31 05:28:14;;;;;;;;;;;;;;;25.86;43.23;94546.84;5058300;28;7319;-63
2022/12/31 05:30:48;;;;;;;;;;;;;;;25.85;42.60;94553.63;5054416;28;7188;-62
2022/12/31 05:33:15;;;;;;;;;;;;;;;25.86;43.18;94548.88;5062867;28;8286;-62
2022/12/31 05:35:58;;;;;;;;;;;;;;;25.87;43.25;94547.59;5064526;28;7396;-64
2022/12/31 05:38:33;;;;;;;;;;;;;;;25.85;42.60;94548.13;5057370;28;7197;-62
2022/12/31 05:41:03;;;;;;;;;;;;;;;25.84;42.87;94535.59;5062350;28;7046;-64
2022/12/31 05:43:35;;;;;;;;;;;;;;;25.87;42.60;94542.84;5058380;28;7155;-63
2022/12/31 05:46:03;;;;;;;;;;;;;;;25.87;42.59;94539.34;5064139;28;7098;-63
2022/12/31 05:48:29;;;;;;;;;;;;;;;25.87;42.50;94539.34;5066662;28;9365;-62
2022/12/31 05:51:05;;;;;;;;;;;;;;;25.87;42.83;94537.34;5063766;28;9298;-63
2022/12/31 05:53:35;;;;;;;;;;;;;;;25.86;42.72;94546.13;5052426;28;7485;-64
2022/12/31 05:56:10;;;;;;;;;;;;;;;25.84;42.71;94543.84;5062274;28;8528;-61
2022/12/31 05:58:51;;;;;;;;;;;;;;;25.83;42.97;94544.38;5062128;28;8998;-62
2022/12/31 06:01:48;;;;;;;;;;;;;;;25.86;42.53;94551.63;5053843;28;7358;-62
2022/12/31 06:04:16;;;;;;;;;;;;;;;25.83;42.89;94553.41;4989277;28;7032;-63
2022/12/31 06:06:43;;;;;;;;;;;;;;;25.84;42.48;94556.88;5007077;28;7219;-64
2022/12/31 06:09:09;;;;;;;;;;;;;;;25.86;42.63;94565.41;4991353;28;7066;-62
2022/12/31 06:11:36;;;;;;;;;;;;;;;25.85;42.75;94570.16;4987869;28;6999;-63
2022/12/31 06:14:03;;;;;;;;;;;;;;;25.85;42.74;94578.44;4988779;28;7283;-63
2022/12/31 06:16:31;;;;;;;;;;;;;;;25.84;43.18;94568.66;4990412;28;7274;-63
2022/12/31 06:18:58;;;;;;;;;;;;;;;25.84;43.36;94576.94;4983983;28;9015;-63
2022/12/31 06:21:35;;;;;;;;;;;;;;;25.83;43.08;94586.47;4991066;28;7702;-61
2022/12/31 06:24:14;;;;;;;;;;;;;;;25.85;43.35;94583.94;5003031;28;7493;-63
2022/12/31 06:26:53;;;;;;;;;;;;;;;25.86;42.85;94587.47;4991912;28;9141;-61
2022/12/31 06:29:19;;;;;;;;;;;;;;;25.84;43.02;94590.69;4993064;28;7215;-62
2022/12/31 06:32:03;;;;;;;;;;;;;;;25.86;42.66;94595.72;4998358;28;9245;-62
2022/12/31 06:34:56;;;;;;;;;;;;;;;25.84;42.57;94581.69;4976160;28;7376;-63
2022/12/31 06:37:22;;;;;;;;;;;;;;;25.81;43.29;94585.47;4991856;28;7292;-62
2022/12/31 06:40:00;;;;;;;;;;;;;;;25.85;43.06;94594.22;4992691;28;7010;-62
2022/12/31 06:42:30;;;;;;;;;;;;;;;25.83;43.17;94602.25;5064449;28;7027;-63
2022/12/31 06:44:57;;;;;;;;;;;;;;;25.85;42.99;94596.97;5061302;28;7155;-63
2022/12/31 06:47:23;;;;;;;;;;;;;;;25.82;43.04;94612.50;5067887;28;7371;-63
2022/12/31 06:49:58;;;;;;;;;;;;;;;25.80;43.26;94615.03;5062281;28;7080;-62
2022/12/31 06:52:44;;;;;;;;;;;;;;;25.81;42.85;94607.50;5059207;28;7244;-63
2022/12/31 06:55:13;;;;;;;;;;;;;;;25.85;43.31;94613.50;5061471;28;7845;-63
2022/12/31 06:57:40;;;;;;;;;;;;;;;25.84;42.50;94598.97;5068149;28;9539;-62
2022/12/31 07:00:12;;;;;;;;;;;;;;;25.87;42.45;94617.25;5066203;28;7665;-63
2022/12/31 07:03:35;;;;;;;;;;;;;;;25.88;43.10;94615.97;5063324;28;7129;-62
2022/12/31 07:06:55;;;;;;;;;;;;;;;25.89;42.60;94614.75;5063437;28;9347;-62
2022/12/31 07:10:00;;;;;;;;;;;;;;;25.85;42.78;94600.47;4959236;28;7203;-61
2022/12/31 07:12:56;;;;;;;;;;;;;;;25.87;42.45;94595.22;4925633;29;7204;-61
2022/12/31 07:15:59;;;;;;;;;;;;;;;25.87;43.02;94597.22;4930810;29;7301;-63
2022/12/31 07:18:46;;;;;;;;;;;;;;;25.86;42.37;94593.69;4924485;29;7146;-62
2022/12/31 07:21:15;;;;;;;;;;;;;;;25.88;42.93;94595.97;4932415;29;8608;-61
2022/12/31 07:23:50;;;;;;;;;;;;;;;25.89;42.60;94597.44;4934131;29;7811;-62
2022/12/31 07:26:34;;;;;;;;;;;;;;;25.87;42.73;94592.44;4920101;29;7109;-62
2022/12/31 07:29:11;;;;;;;;;;;;;;;25.87;42.42;94595.22;4924729;29;8128;-60
2022/12/31 07:32:14;;;;;;;;;;;;;;;25.89;42.17;94598.19;4921444;29;10454;-60
2022/12/31 07:35:26;;;;;;;;;;;;;;;25.90;43.05;94604.47;4923350;29;7020;-62
2022/12/31 07:42:50;;;;;;;;;;;;;;;25.86;42.59;94623.28;5071991;27;1379517;-60
2022/12/31 07:45:44;;;;;;;;;;;;;;;25.88;42.56;94621.50;5064167;28;7348;-62
2022/12/31 07:48:22;;;;;;;;;;;;;;;25.88;42.88;94634.53;5063821;28;7962;-62
2022/12/31 07:50:49;;;;;;;;;;;;;;;25.88;42.96;94629.03;5056689;28;9240;-62
2022/12/31 07:53:15;;;;;;;;;;;;;;;25.89;43.37;94634.03;5089433;28;8463;-62
2022/12/31 07:56:28;;;;;;;;;;;;;;;25.92;43.26;94652.31;5081204;28;9675;-63
2022/12/31 07:59:15;;;;;;;;;;;;;;;25.93;43.45;94637.25;5046819;28;7203;-63
2022/12/31 08:02:19;;;;;;;;;;;;;;;25.93;43.50;94642.78;5055696;28;9392;-62
2022/12/31 08:05:12;;;;;;;;;;;;;;;25.93;42.74;94637.25;5042178;28;8761;-63
2022/12/31 08:08:15;;;;;;;;;;;;;;;25.90;42.83;94660.31;5065705;28;7263;-63
2022/12/31 08:11:13;;;;;;;;;;;;;;;25.93;43.46;94653.03;5046362;28;9544;-62
2022/12/31 08:14:01;;;;;;;;;;;;;;;25.93;43.04;94658.56;5038532;28;9013;-62
2022/12/31 08:16:27;;;;;;;;;;;;;;;25.94;43.36;94665.59;5063398;28;7020;-63
2022/12/31 08:19:03;;;;;;;;;;;;;;;25.98;43.69;94655.78;5098876;28;7028;-62
2022/12/31 08:21:52;;;;;;;;;;;;;;;26.01;43.04;94665.06;5088686;28;7623;-62
2022/12/31 08:25:01;;;;;;;;;;;;;;;25.98;42.86;94666.06;5092466;28;7205;-63
2022/12/31 08:27:40;;;;;;;;;;;;;;;25.96;43.23;94663.81;5045747;28;7260;-63
2022/12/31 08:30:52;;;;;;;;;;;;;;;25.95;43.47;94667.81;5041712;28;7218;-62
2022/12/31 08:33:31;;;;;;;;;;;;;;;25.92;43.63;94657.81;5046123;28;7055;-62
2022/12/31 08:36:19;;;;;;;;;;;;;;;25.96;43.29;94658.31;5045579;28;7264;-64
2022/12/31 08:39:26;;;;;;;;;;;;;;;26.09;42.66;94655.78;5083485;28;7084;-64
2022/12/31 08:41:58;;;;;;;;;;;;;;;26.22;43.81;94651.72;5075134;28;7122;-64
2022/12/31 08:44:46;;;;;;;;;;;;;;;26.29;42.93;94651.19;5082922;28;7650;-63
2022/12/31 08:47:47;;;;;;;;;;;;;;;26.27;42.70;94659.22;5064770;28;7302;-63
2022/12/31 08:50:17;;;;;;;;;;;;;;;26.25;43.23;94647.94;5082016;28;9350;-63
2022/12/31 08:52:59;;;;;;;;;;;;;;;26.19;42.71;94652.75;5067175;28;8727;-62
2022/12/31 08:56:08;;;;;;;;;;;;;;;26.07;43.26;94638.97;5070187;28;7389;-62
2022/12/31 08:59:06;;;;;;;;;;;;;;;26.04;43.33;94630.94;5066918;28;7251;-63
2022/12/31 09:01:58;;;;;;;;;;;;;;;26.02;43.71;94633.47;5066565;28;9112;-64
2022/12/31 09:05:01;;;;;;;;;;;;;;;26.01;43.46;94632.72;5097920;28;7277;-63
2022/12/31 09:08:06;;;;;;;;;;;;;;;26.02;43.11;94627.97;5106091;28;9247;-64
2022/12/31 09:11:27;;;;;;;;;;;;;;;26.03;43.83;94627.44;5104122;28;7229;-63
2022/12/31 09:14:23;;;;;;;;;;;;;;;26.03;43.41;94624.69;5003440;28;7461;-62
2022/12/31 09:17:36;;;;;;;;;;;;;;;26.03;44.23;94621.19;5026839;28;7517;-62
2022/12/31 09:20:24;;;;;;;;;;;;;;;26.03;44.13;94632.22;5007853;28;7509;-63
2022/12/31 09:23:02;;;;;;;;;;;;;;;26.01;43.36;94621.69;5016333;28;7472;-63
2022/12/31 09:25:51;;;;;;;;;;;;;;;25.97;43.62;94642.50;5008364;28;7132;-63
2022/12/31 09:32:11;;;;;;;;;;;;;;;25.95;44.64;94634.75;5023380;28;7241;-63
2022/12/31 09:35:20;;;;;;;;;;;;;;;25.93;45.03;94637.25;4968257;28;7053;-63
2022/12/31 09:37:50;;;;;;;;;;;;;;;25.87;44.88;94639.31;4970266;28;7044;-63
2022/12/31 09:40:29;;;;;;;;;;;;;;;25.87;44.75;94631.03;4951235;28;7043;-62
2022/12/31 09:44:01;;;;;;;;;;;;;;;25.94;45.47;94640.78;4963767;28;7427;-62
2022/12/31 09:46:39;;;;;;;;;;;;;;;25.98;45.36;94641.25;4911014;29;7381;-62
2022/12/31 09:49:42;;;;;;;;;;;;;;;26.00;44.91;94645.00;4946333;28;7334;-61
2022/12/31 09:52:55;;;;;;;;;;;;;;;26.04;44.23;94639.22;4969748;28;7292;-61
2022/12/31 09:55:38;;;;;;;;;;;;;;;26.02;44.08;94650.75;4950392;28;9136;-62
2022/12/31 09:58:10;;;;;;;;;;;;;;;26.04;44.09;94650.25;4952845;28;11814;-61
2022/12/31 10:00:52;;;;;;;;;;;;;;;26.05;44.42;94641.50;4968224;28;9002;-61
2022/12/31 10:03:37;;;;;;;;;;;;;;;26.05;44.08;94633.22;4968203;28;6927;-61
2022/12/31 10:06:28;;;;;;;;;;;;;;;26.05;46.67;94624.19;4966175;28;7530;-61
2022/12/31 10:09:29;;;;;;;;;;;;;;;26.07;46.79;94627.94;4951374;28;8762;-61
2022/12/31 10:12:38;;;;;;;;;;;;;;;26.10;44.68;94628.94;4976868;28;7441;-61
2022/12/31 10:15:24;;;;;;;;;;;;;;;26.08;44.52;94634.97;5002594;28;7110;-61
2022/12/31 10:18:23;;;;;;;;;;;;;;;26.09;45.18;94630.97;4987840;28;7049;-62
2022/12/31 10:21:02;;;;;;;;;;;;;;;26.11;43.84;94633.22;5088360;28;7288;-59
2022/12/31 10:24:01;;;;;;;;;;;;;;;26.09;44.49;94622.69;5093985;28;7104;-62
2022/12/31 10:27:05;;;;;;;;;;;;;;;26.14;43.84;94627.41;5095210;28;8988;-62
2022/12/31 10:29:57;;;;;;;;;;;;;;;26.14;44.50;94626.69;5100474;28;9285;-62
2022/12/31 10:33:05;;;;;;;;;;;;;;;26.15;44.67;94626.19;5099736;28;7371;-61
2022/12/31 10:35:51;;;;;;;;;;;;;;;26.14;44.97;94626.69;5099808;28;8754;-62
2022/12/31 10:38:56;;;;;;;;;;;;;;;26.11;44.76;94620.19;5116671;27;8997;-62
2022/12/31 10:41:59;;;;;;;;;;;;;;;26.12;44.63;94607.88;5097077;28;7519;-63
2022/12/31 10:44:44;;;;;;;;;;;;;;;26.13;44.15;94606.63;5094580;28;7025;-62
2022/12/31 10:47:44;;;;;;;;;;;;;;;26.15;44.67;94604.13;5099313;28;7267;-61
2022/12/31 10:50:27;;;;;;;;;;;;;;;26.14;44.72;94597.09;5028150;28;9778;-63
2022/12/31 10:53:32;;;;;;;;;;;;;;;26.12;44.89;94591.34;5044841;28;9000;-63
2022/12/31 10:56:38;;;;;;;;;;;;;;;26.15;44.19;94587.56;5047660;28;7470;-63
2022/12/31 10:59:09;;;;;;;;;;;;;;;26.21;44.17;94586.81;5045050;28;7119;-62
2022/12/31 11:01:59;;;;;;;;;;;;;;;26.21;44.61;94584.06;5046325;28;7370;-62
2022/12/31 11:05:03;;;;;;;;;;;;;;;26.21;44.69;94578.53;5046128;28;7320;-62
2022/12/31 11:07:53;;;;;;;;;;;;;;;26.20;44.62;94571.50;4961478;28;9047;-62
2022/12/31 11:10:55;;;;;;;;;;;;;;;26.22;44.42;94571.75;4974916;28;8310;-61
2022/12/31 11:14:03;;;;;;;;;;;;;;;26.22;44.81;94557.97;4973667;28;7363;-62
2022/12/31 11:16:37;;;;;;;;;;;;;;;26.19;44.62;94554.22;4974434;28;9499;-59
2022/12/31 11:19:27;;;;;;;;;;;;;;;26.15;45.05;94548.97;4973309;28;8293;-61
2022/12/31 11:22:30;;;;;;;;;;;;;;;26.18;44.76;94552.72;4971035;28;7454;-62
2022/12/31 11:25:13;;;;;;;;;;;;;;;26.20;44.35;94546.69;4983221;28;8983;-62
2022/12/31 11:27:44;;;;;;;;;;;;;;;26.23;44.77;94551.19;5000063;28;9657;-59
2022/12/31 11:34:03;;;;;;;;;;;;;;;26.27;44.78;94540.66;5034712;28;7263;-63
2022/12/31 11:37:10;;;;;;;;;;;;;;;26.24;44.55;94531.38;5023732;28;7104;-61
2022/12/31 11:39:54;;;;;;;;;;;;;;;26.28;44.98;94525.59;4985430;28;7113;-63
2022/12/31 11:42:54;;;;;;;;;;;;;;;26.28;44.73;94518.06;4980345;28;7801;-62
2022/12/31 11:45:26;;;;;;;;;;;;;;;26.29;44.29;94521.56;4968669;28;7441;-62
2022/12/31 11:48:13;;;;;;;;;;;;;;;26.30;44.55;94521.06;4986128;28;7069;-63
2022/12/31 11:51:27;;;;;;;;;;;;;;;26.31;44.62;94527.31;4972030;28;9184;-61
2022/12/31 11:54:30;;;;;;;;;;;;;;;26.33;44.03;94520.03;4913319;29;7059;-62
2022/12/31 11:57:35;;;;;;;;;;;;;;;26.30;43.81;94509.28;4931771;29;8717;-63
2022/12/31 12:00:19;;;;;;;;;;;;;;;26.31;44.17;94513.53;4909993;29;8975;-62
2022/12/31 12:03:04;;;;;;;;;;;;;;;26.31;43.84;94506.03;4909271;29;8660;-63
2022/12/31 12:05:42;;;;;;;;;;;;;;;26.34;43.93;94502.22;4907873;29;10454;-63
2022/12/31 12:08:12;;;;;;;;;;;;;;;26.37;44.07;94500.44;4888483;29;8152;-61
2022/12/31 12:10:48;;;;;;;;;;;;;;;26.37;43.86;94511.47;4901763;29;7675;-62
2022/12/31 12:13:16;;;;;;;;;;;;;;;26.36;43.95;94501.72;4898760;29;9288;-62
2022/12/31 12:15:53;;;;;;;;;;;;;;;26.39;43.70;94497.94;4920555;29;9034;-61
2022/12/31 12:18:47;;;;;;;;;;;;;;;26.39;43.61;94506.19;4924357;29;7294;-62
2022/12/31 12:21:24;;;;;;;;;;;;;;;26.40;43.78;94510.47;4874760;29;8205;-62
2022/12/31 12:24:01;;;;;;;;;;;;;;;26.41;43.70;94503.69;4884196;29;9112;-62
2022/12/31 12:26:37;;;;;;;;;;;;;;;26.43;43.76;94501.16;4890953;29;9323;-62
2022/12/31 12:29:42;;;;;;;;;;;;;;;26.45;43.74;94493.09;4891612;29;7025;-62
2022/12/31 12:32:26;;;;;;;;;;;;;;;26.42;43.36;94489.38;4911479;29;7178;-61
2022/12/31 12:34:54;;;;;;;;;;;;;;;26.43;43.82;94492.88;4956455;28;7059;-63
2022/12/31 12:37:33;;;;;;;;;;;;;;;26.43;43.15;94490.13;5005365;28;7039;-61
2022/12/31 12:40:30;;;;;;;;;;;;;;;26.45;43.29;94487.59;5001866;28;7804;-61
2022/12/31 12:43:29;;;;;;;;;;;;;;;26.46;42.97;94489.09;5002271;28;7295;-63
2022/12/31 12:46:03;;;;;;;;;;;;;;;26.46;43.31;94489.09;5005662;28;7145;-62
2022/12/31 12:48:46;;;;;;;;;;;;;;;26.46;43.27;94489.09;5031279;28;7018;-62
2022/12/31 12:51:40;;;;;;;;;;;;;;;26.46;42.81;94483.59;5026821;28;7167;-61
2022/12/31 12:54:38;;;;;;;;;;;;;;;26.43;43.02;94485.34;5029693;28;8648;-63
2022/12/31 12:57:48;;;;;;;;;;;;;;;26.41;43.16;94482.38;5011693;28;9272;-62
2022/12/31 13:00:50;;;;;;;;;;;;;;;26.40;43.11;94480.13;5100384;28;9526;-63
2022/12/31 13:04:03;;;;;;;;;;;;;;;26.41;42.71;94470.56;5049852;28;7095;-62
2022/12/31 13:07:14;;;;;;;;;;;;;;;26.41;43.26;94473.34;5038754;28;8246;-62
2022/12/31 13:09:49;;;;;;;;;;;;;;;26.42;42.53;94474.84;5024348;28;9075;-63
2022/12/31 13:12:56;;;;;;;;;;;;;;;26.43;42.71;94468.06;5022216;28;7034;-63
2022/12/31 13:15:59;;;;;;;;;;;;;;;26.44;42.65;94475.06;5029231;28;7221;-62
2022/12/31 13:18:32;;;;;;;;;;;;;;;26.42;42.54;94472.09;5025862;28;7844;-61
2022/12/31 13:21:36;;;;;;;;;;;;;;;26.41;42.53;94473.34;5046624;28;8910;-60
2022/12/31 13:24:40;;;;;;;;;;;;;;;26.38;42.63;94474.38;5046894;28;7164;-61
2022/12/31 13:27:18;;;;;;;;;;;;;;;26.37;42.35;94470.13;5020187;28;7096;-63
2022/12/31 13:29:46;;;;;;;;;;;;;;;26.38;42.10;94468.88;5023590;28;7209;-61
2022/12/31 13:32:31;;;;;;;;;;;;;;;26.37;42.42;94472.88;5034734;28;7131;-62
2022/12/31 13:35:26;;;;;;;;;;;;;;;26.36;42.21;94471.41;5032547;28;7323;-62
2022/12/31 13:38:18;;;;;;;;;;;;;;;26.34;42.54;94471.16;5021590;28;9201;-62
2022/12/31 13:41:39;;;;;;;;;;;;;;;26.34;41.99;94471.16;5095455;28;9087;-62
2022/12/31 13:44:51;;;;;;;;;;;;;;;26.31;42.14;94481.22;5002621;28;7271;-62
2022/12/31 13:47:46;;;;;;;;;;;;;;;26.32;41.52;94477.16;5027556;28;7463;-62
2022/12/31 13:50:25;;;;;;;;;;;;;;;26.31;41.88;94478.44;5005847;28;7045;-62
2022/12/31 13:53:00;;;;;;;;;;;;;;;26.30;41.55;94487.22;5021326;28;7261;-62
2022/12/31 13:56:04;;;;;;;;;;;;;;;26.29;42.56;94483.72;5000877;28;7043;-62
2022/12/31 13:59:00;;;;;;;;;;;;;;;26.30;41.93;94476.19;4937602;28;7074;-60
2022/12/31 14:05:35;;;;;;;;;;;;;;;26.30;42.42;94476.94;4917384;29;7414;-61
2022/12/31 14:08:04;;;;;;;;;;;;;;;26.31;42.40;94483.22;4895331;29;9163;-61
2022/12/31 14:10:53;;;;;;;;;;;;;;;26.29;42.35;94492.00;4881125;29;9750;-61
2022/12/31 14:13:59;;;;;;;;;;;;;;;26.29;41.80;94492.00;4887099;29;7011;-62
2022/12/31 14:16:50;;;;;;;;;;;;;;;26.30;42.62;94501.75;4890483;29;9753;-62
2022/12/31 14:19:45;;;;;;;;;;;;;;;26.28;42.46;94496.00;4902977;29;7470;-61
2022/12/31 14:22:36;;;;;;;;;;;;;;;26.29;42.01;94494.00;4918091;29;7350;-61
2022/12/31 14:25:25;;;;;;;;;;;;;;;26.28;41.88;94498.75;4917624;29;8734;-62
2022/12/31 14:28:06;;;;;;;;;;;;;;;26.28;42.29;94493.25;4910731;29;9308;-62
2022/12/31 14:30:48;;;;;;;;;;;;;;;26.27;42.50;94489.00;4917890;29;7364;-62
2022/12/31 14:34:08;;;;;;;;;;;;;;;26.28;42.15;94498.75;4950141;28;7505;-62
2022/12/31 14:36:51;;;;;;;;;;;;;;;26.27;42.28;94513.06;4861250;29;9330;-62
2022/12/31 14:39:44;;;;;;;;;;;;;;;26.28;42.15;94525.59;4853116;29;7090;-62
2022/12/31 14:42:39;;;;;;;;;;;;;;;26.27;42.65;94507.56;4897843;29;9571;-62
2022/12/31 14:45:26;;;;;;;;;;;;;;;26.28;42.49;94506.28;4972810;28;9552;-62
2022/12/31 14:48:03;;;;;;;;;;;;;;;26.28;42.00;94522.81;5007753;28;8540;-62
2022/12/31 14:50:33;;;;;;;;;;;;;;;26.29;42.54;94521.56;4978448;28;7268;-61